createdAt,value
2022-11-13T00:00:35.491Z,8.00
2022-11-13T00:03:02.032Z,8.03
2022-11-13T00:05:28.495Z,8.17
2022-11-13T00:07:54.920Z,8.01
2022-11-13T00:10:21.409Z,7.92
2022-11-13T00:12:48.268Z,8.32
2022-11-13T00:15:15.148Z,8.12
2022-11-13T00:17:41.562Z,7.85
2022-11-13T00:20:08.338Z,7.81
2022-11-13T00:22:34.827Z,7.83
2022-11-13T00:25:01.280Z,7.84
2022-11-13T00:27:30.200Z,7.87
2022-11-13T00:29:56.973Z,7.53
2022-11-13T00:32:23.669Z,7.86
2022-11-13T00:34:50.414Z,7.90
2022-11-13T00:37:16.940Z,7.87
2022-11-13T00:39:43.814Z,7.84
2022-11-13T00:42:10.330Z,7.71
2022-11-13T00:44:36.774Z,7.81
2022-11-13T00:47:03.284Z,8.00
2022-11-13T00:49:30.358Z,7.84
2022-11-13T00:51:56.874Z,7.86
2022-11-13T00:54:23.333Z,8.01
2022-11-13T00:56:49.850Z,8.14
2022-11-13T00:59:16.286Z,8.09
2022-11-13T01:01:42.823Z,8.14
2022-11-13T01:04:09.292Z,8.31
2022-11-13T01:06:35.935Z,7.98
2022-11-13T01:09:02.618Z,7.93
2022-11-13T01:11:30.165Z,8.03
2022-11-13T01:13:57.129Z,8.42
2022-11-13T01:16:26.469Z,8.18
2022-11-13T01:18:56.643Z,8.32
2022-11-13T01:21:25.773Z,8.11
2022-11-13T01:23:52.353Z,8.39
2022-11-13T01:26:20.183Z,8.32
2022-11-13T01:28:47.436Z,8.39
2022-11-13T01:31:21.138Z,8.47
2022-11-13T01:33:48.220Z,8.44
2022-11-13T01:36:20.580Z,8.38
2022-11-13T01:38:47.746Z,8.47
2022-11-13T01:41:28.939Z,8.23
2022-11-13T01:43:56.376Z,8.04
2022-11-13T01:46:29.986Z,8.29
2022-11-13T01:49:08.568Z,8.29
2022-11-13T01:51:39.487Z,8.15
2022-11-13T01:54:10.123Z,8.32
2022-11-13T01:56:37.231Z,8.34
2022-11-13T01:59:16.691Z,8.22
2022-11-13T02:01:43.318Z,8.34
2022-11-13T02:04:09.885Z,8.45
2022-11-13T02:06:42.257Z,8.47
2022-11-13T02:09:09.949Z,8.31
2022-11-13T02:11:37.827Z,8.27
2022-11-13T02:14:05.577Z,8.26
2022-11-13T02:16:33.228Z,8.12
2022-11-13T02:19:00.371Z,8.30
2022-11-13T02:21:38.421Z,8.05
2022-11-13T02:24:18.061Z,8.19
2022-11-13T02:26:44.895Z,8.23
2022-11-13T02:29:11.404Z,8.12
2022-11-13T02:31:37.981Z,8.12
2022-11-13T02:34:04.463Z,7.86
2022-11-13T02:36:32.099Z,8.11
2022-11-13T02:39:01.625Z,8.14
2022-11-13T02:41:28.112Z,7.96
2022-11-13T02:43:54.536Z,8.23
2022-11-13T02:46:20.994Z,8.06
2022-11-13T02:48:47.422Z,8.00
2022-11-13T02:51:14.300Z,8.12
2022-11-13T02:53:40.791Z,7.92
2022-11-13T02:56:07.587Z,7.88
2022-11-13T02:58:34.054Z,7.98
2022-11-13T03:01:04.483Z,8.02
2022-11-13T03:03:56.588Z,7.97
2022-11-13T03:06:17.352Z,7.95
2022-11-13T03:08:43.806Z,8.00
2022-11-13T03:11:11.392Z,7.81
2022-11-13T03:13:38.241Z,7.83
2022-11-13T03:16:10.152Z,7.97
2022-11-13T03:21:12.944Z,7.92
2022-11-13T03:23:41.169Z,7.97
2022-11-13T03:26:10.335Z,8.00
2022-11-13T03:28:37.520Z,7.98
2022-11-13T03:31:04.514Z,7.60
2022-11-13T03:33:31.523Z,7.73
2022-11-13T03:35:58.114Z,7.78
2022-11-13T03:38:24.686Z,7.71
2022-11-13T03:40:51.663Z,7.88
2022-11-13T03:43:18.459Z,7.65
2022-11-13T03:45:46.494Z,7.70
2022-11-13T03:48:14.179Z,7.86
2022-11-13T03:50:45.622Z,7.92
2022-11-13T03:53:12.658Z,7.79
2022-11-13T03:55:39.313Z,7.57
2022-11-13T03:58:06.007Z,7.71
2022-11-13T04:00:33.081Z,7.87
2022-11-13T04:02:59.636Z,7.92
2022-11-13T04:05:26.251Z,7.64
2022-11-13T04:07:52.766Z,7.61
2022-11-13T04:10:19.279Z,7.87
2022-11-13T04:12:45.733Z,7.73
2022-11-13T04:15:12.203Z,7.69
2022-11-13T04:17:38.668Z,7.48
2022-11-13T04:20:05.691Z,7.38
2022-11-13T04:22:32.167Z,7.38
2022-11-13T04:24:58.624Z,7.42
2022-11-13T04:27:25.082Z,7.52
2022-11-13T04:29:51.572Z,7.62
2022-11-13T04:32:18.078Z,7.89
2022-11-13T04:34:44.530Z,7.72
2022-11-13T04:37:10.994Z,7.74
2022-11-13T04:39:37.484Z,7.85
2022-11-13T04:42:36.307Z,8.04
2022-11-13T04:45:03.040Z,7.91
2022-11-13T04:47:29.505Z,7.72
2022-11-13T04:49:55.925Z,7.82
2022-11-13T04:52:22.440Z,7.98
2022-11-13T04:54:48.869Z,8.02
2022-11-13T04:57:15.305Z,8.14
2022-11-13T04:59:41.738Z,8.18
2022-11-13T05:02:08.214Z,7.94
2022-11-13T05:04:34.816Z,7.93
2022-11-13T05:07:01.370Z,7.87
2022-11-13T05:09:27.985Z,8.04
2022-11-13T05:11:54.427Z,8.06
2022-11-13T05:14:20.898Z,7.98
2022-11-13T05:16:47.371Z,7.87
2022-11-13T05:19:13.815Z,7.94
2022-11-13T05:21:40.314Z,7.76
2022-11-13T05:24:07.130Z,7.77
2022-11-13T05:26:33.587Z,7.61
2022-11-13T05:29:00.857Z,7.54
2022-11-13T05:31:27.389Z,7.63
2022-11-13T05:33:53.989Z,7.62
2022-11-13T05:36:20.832Z,7.57
2022-11-13T05:38:47.606Z,7.77
2022-11-13T05:41:17.307Z,7.84
2022-11-13T05:43:44.409Z,7.83
2022-11-13T05:46:15.100Z,7.65
2022-11-13T05:48:42.482Z,7.60
2022-11-13T05:51:15.247Z,7.98
2022-11-13T05:53:42.350Z,8.07
2022-11-13T05:56:18.468Z,8.09
2022-11-13T05:58:45.547Z,8.29
2022-11-13T06:01:14.426Z,8.30
2022-11-13T06:03:41.302Z,8.23
2022-11-13T06:06:09.367Z,8.08
2022-11-13T06:08:36.394Z,8.25
2022-11-13T06:11:11.349Z,8.09
2022-11-13T06:13:38.679Z,8.06
2022-11-13T06:16:05.314Z,8.05
2022-11-13T06:18:32.664Z,8.21
2022-11-13T06:21:15.354Z,8.13
2022-11-13T06:23:42.328Z,8.30
2022-11-13T06:26:14.710Z,8.40
2022-11-13T06:28:41.579Z,8.49
2022-11-13T06:31:17.187Z,8.35
2022-11-13T06:33:43.818Z,8.24
2022-11-13T06:36:18.896Z,8.31
2022-11-13T06:38:45.495Z,8.33
2022-11-13T06:41:14.174Z,8.33
2022-11-13T06:43:41.072Z,8.07
2022-11-13T06:46:19.960Z,8.15
2022-11-13T06:48:48.585Z,8.17
2022-11-13T06:51:19.028Z,7.79
2022-11-13T06:53:47.356Z,7.76
2022-11-13T06:56:14.877Z,8.00
2022-11-13T06:58:42.365Z,7.99
2022-11-13T07:01:17.599Z,7.94
2022-11-13T07:03:45.017Z,8.16
2022-11-13T07:06:23.136Z,8.00
2022-11-13T07:08:50.499Z,8.17
2022-11-13T07:11:21.900Z,8.28
2022-11-13T07:13:49.308Z,8.12
2022-11-13T07:16:18.256Z,8.31
2022-11-13T07:18:51.579Z,8.36
2022-11-13T07:21:19.030Z,8.28
2022-11-13T07:23:48.857Z,8.06
2022-11-13T07:26:17.238Z,8.20
2022-11-13T07:28:44.248Z,8.55
2022-11-13T07:31:12.868Z,8.45
2022-11-13T07:33:39.449Z,8.39
2022-11-13T07:36:06.555Z,8.46
2022-11-13T07:38:33.028Z,8.67
2022-11-13T07:40:59.850Z,8.51
2022-11-13T07:43:26.538Z,8.78
2022-11-13T07:45:54.870Z,8.87
2022-11-13T07:48:24.891Z,8.67
2022-11-13T07:50:51.570Z,8.67
2022-11-13T07:53:18.930Z,8.99
2022-11-13T07:55:45.942Z,8.98
2022-11-13T07:58:12.585Z,9.01
2022-11-13T08:00:39.642Z,9.00
2022-11-13T08:03:08.064Z,8.84
2022-11-13T08:05:34.624Z,8.89
2022-11-13T08:08:01.184Z,8.91
2022-11-13T08:10:28.140Z,8.96
2022-11-13T08:13:02.594Z,8.87
2022-11-13T08:15:30.091Z,8.52
2022-11-13T08:17:57.660Z,8.95
2022-11-13T08:20:25.169Z,8.66
2022-11-13T08:22:51.740Z,9.04
2022-11-13T08:25:18.748Z,8.84
2022-11-13T08:27:45.586Z,9.17
2022-11-13T08:30:13.253Z,9.13
2022-11-13T08:32:39.751Z,8.87
2022-11-13T08:35:06.547Z,9.09
2022-11-13T08:37:33.543Z,9.18
2022-11-13T08:40:00.002Z,9.00
2022-11-13T08:42:26.442Z,9.26
2022-11-13T08:44:52.890Z,9.41
2022-11-13T08:47:19.362Z,9.58
2022-11-13T08:49:45.814Z,9.48
2022-11-13T08:52:12.305Z,9.72
2022-11-13T08:54:38.755Z,9.44
2022-11-13T08:57:06.235Z,9.90
2022-11-13T08:59:32.788Z,10.12
2022-11-13T09:01:59.797Z,9.90
2022-11-13T09:04:26.751Z,10.18
2022-11-13T09:06:53.583Z,10.13
2022-11-13T09:09:21.917Z,10.06
2022-11-13T09:11:48.406Z,10.24
2022-11-13T09:14:15.096Z,10.45
2022-11-13T09:16:41.965Z,10.38
2022-11-13T09:21:36.067Z,10.04
2022-11-13T09:24:03.525Z,10.26
2022-11-13T09:26:29.997Z,10.17
2022-11-13T09:28:56.791Z,9.63
2022-11-13T09:31:23.437Z,10.23
2022-11-13T09:33:49.895Z,10.31
2022-11-13T09:36:17.387Z,9.96
2022-11-13T09:38:44.232Z,9.82
2022-11-13T09:41:14.852Z,9.83
2022-11-13T09:43:59.616Z,9.96
2022-11-13T09:46:51.808Z,10.27
2022-11-13T09:49:47.318Z,10.16
2022-11-13T09:52:24.761Z,10.55
2022-11-13T09:54:51.575Z,10.22
2022-11-13T09:57:31.150Z,9.99
2022-11-13T10:00:11.919Z,10.14
2022-11-13T10:03:17.680Z,9.93
2022-11-13T10:05:49.928Z,10.40
2022-11-13T10:08:20.019Z,10.33
2022-11-13T10:10:56.305Z,10.46
2022-11-13T10:13:32.483Z,10.69
2022-11-13T10:16:22.612Z,10.39
2022-11-13T10:18:50.855Z,10.11
2022-11-13T10:21:27.769Z,10.62
2022-11-13T10:23:58.158Z,10.35
2022-11-13T10:26:28.018Z,10.24
2022-11-13T10:29:01.007Z,10.39
2022-11-13T10:31:27.491Z,10.60
2022-11-13T10:33:55.305Z,10.20
2022-11-13T10:36:36.241Z,10.09
2022-11-13T10:39:06.696Z,10.32
2022-11-13T10:41:33.763Z,10.25
2022-11-13T10:44:07.720Z,10.86
2022-11-13T10:46:34.538Z,10.21
2022-11-13T10:49:18.918Z,10.62
2022-11-13T10:51:45.421Z,10.43
2022-11-13T10:54:23.284Z,10.36
2022-11-13T10:57:25.164Z,10.62
2022-11-13T10:59:51.798Z,10.81
2022-11-13T11:02:23.473Z,10.64
2022-11-13T11:04:50.244Z,10.35
2022-11-13T11:07:22.136Z,9.89
2022-11-13T11:09:50.915Z,10.02
2022-11-13T11:12:22.026Z,10.39
2022-11-13T11:14:56.908Z,9.88
2022-11-13T11:17:27.328Z,10.14
2022-11-13T11:20:01.032Z,9.94
2022-11-13T11:22:30.677Z,9.98
2022-11-13T11:25:06.243Z,10.39
2022-11-13T11:27:37.731Z,10.01
2022-11-13T11:30:12.646Z,10.24
2022-11-13T11:32:44.886Z,9.83
2022-11-13T11:35:41.826Z,10.34
2022-11-13T11:38:28.349Z,10.14
2022-11-13T11:41:13.324Z,10.19
2022-11-13T11:43:46.055Z,10.14
2022-11-13T11:46:13.710Z,10.21
2022-11-13T11:48:40.665Z,10.05
2022-11-13T11:51:27.422Z,10.24
2022-11-13T11:53:58.440Z,10.55
2022-11-13T11:56:31.528Z,10.57
2022-11-13T11:59:06.352Z,10.72
2022-11-13T12:02:18.229Z,10.95
2022-11-13T12:05:03.574Z,10.43
2022-11-13T12:07:36.204Z,11.06
2022-11-13T12:10:24.640Z,11.15
2022-11-13T12:13:03.997Z,10.61
2022-11-13T12:16:09.611Z,10.68
2022-11-13T12:18:50.780Z,10.11
2022-11-13T12:21:51.630Z,10.70
2022-11-13T12:24:22.929Z,10.90
2022-11-13T12:27:10.664Z,11.04
2022-11-13T12:30:08.677Z,10.33
2022-11-13T12:32:42.932Z,10.86
2022-11-13T12:35:20.691Z,10.10
2022-11-13T12:37:55.807Z,10.41
2022-11-13T12:40:33.390Z,10.25
2022-11-13T12:43:50.473Z,10.91
2022-11-13T12:46:17.762Z,11.00
2022-11-13T12:48:46.476Z,10.90
2022-11-13T12:51:16.089Z,10.61
2022-11-13T12:53:51.476Z,10.00
2022-11-13T12:56:24.023Z,10.17
2022-11-13T12:59:31.333Z,10.40
2022-11-13T13:02:07.162Z,10.83
2022-11-13T13:04:57.959Z,10.90
2022-11-13T13:07:50.722Z,10.97
2022-11-13T13:10:47.543Z,10.68
2022-11-13T13:13:25.971Z,10.47
2022-11-13T13:15:59.953Z,10.20
2022-11-13T13:18:33.495Z,10.39
2022-11-13T13:21:09.566Z,10.96
2022-11-13T13:23:38.638Z,10.96
2022-11-13T13:26:17.530Z,11.07
2022-11-13T13:28:49.806Z,11.25
2022-11-13T13:31:39.770Z,10.94
2022-11-13T13:34:21.507Z,11.06
2022-11-13T13:36:58.803Z,10.50
2022-11-13T13:40:02.777Z,10.37
2022-11-13T13:42:41.471Z,10.80
2022-11-13T13:45:32.735Z,10.62
2022-11-13T13:48:00.529Z,10.52
2022-11-13T13:50:33.769Z,10.67
2022-11-13T13:53:00.616Z,10.29
2022-11-13T13:55:28.610Z,10.21
2022-11-13T13:57:55.274Z,10.49
2022-11-13T14:00:21.799Z,10.75
2022-11-13T14:02:50.156Z,10.61
2022-11-13T14:05:24.954Z,10.20
2022-11-13T14:07:51.447Z,10.37
2022-11-13T14:10:23.980Z,11.03
2022-11-13T14:12:50.796Z,10.27
2022-11-13T14:15:24.118Z,10.66
2022-11-13T14:17:50.614Z,10.54
2022-11-13T14:20:17.656Z,11.18
2022-11-13T14:22:48.394Z,11.15
2022-11-13T14:25:24.276Z,10.90
2022-11-13T14:27:51.745Z,10.86
2022-11-13T14:30:27.075Z,10.97
2022-11-13T14:32:54.094Z,10.76
2022-11-13T14:35:25.570Z,10.57
2022-11-13T14:37:53.519Z,10.96
2022-11-13T14:40:35.670Z,10.91
2022-11-13T14:43:07.740Z,10.72
2022-11-13T14:45:34.353Z,10.55
2022-11-13T14:48:16.103Z,10.66
2022-11-13T14:50:57.444Z,11.04
2022-11-13T14:53:38.614Z,10.28
2022-11-13T14:56:10.731Z,10.84
2022-11-13T14:58:47.362Z,10.59
2022-11-13T15:01:16.900Z,10.92
2022-11-13T15:03:44.727Z,11.00
2022-11-13T15:06:14.891Z,10.80
2022-11-13T15:08:41.499Z,10.51
2022-11-13T15:11:09.714Z,11.18
2022-11-13T15:13:36.167Z,11.31
2022-11-13T15:16:02.753Z,11.21
2022-11-13T15:18:29.254Z,11.17
2022-11-13T15:20:55.717Z,11.42
2022-11-13T15:23:25.772Z,10.99
2022-11-13T15:25:54.670Z,10.86
2022-11-13T15:28:21.137Z,10.79
2022-11-13T15:30:47.634Z,11.23
2022-11-13T15:33:15.703Z,11.18
2022-11-13T15:35:42.901Z,11.27
2022-11-13T15:38:12.380Z,11.02
2022-11-13T15:40:39.216Z,11.44
2022-11-13T15:43:14.871Z,11.43
2022-11-13T15:45:44.265Z,11.63
2022-11-13T15:48:11.105Z,11.30
2022-11-13T15:50:37.555Z,10.96
2022-11-13T15:53:05.668Z,10.82
2022-11-13T15:55:32.707Z,11.19
2022-11-13T15:58:02.062Z,10.91
2022-11-13T16:00:28.988Z,11.04
2022-11-13T16:02:56.878Z,11.58
2022-11-13T16:05:25.536Z,11.91
2022-11-13T16:07:53.313Z,11.74
2022-11-13T16:10:24.935Z,11.66
2022-11-13T16:12:52.630Z,11.62
2022-11-13T16:15:19.717Z,11.49
2022-11-13T16:17:54.607Z,11.48
2022-11-13T16:20:21.098Z,11.29
2022-11-13T16:22:47.820Z,10.97
2022-11-13T16:25:16.941Z,10.80
2022-11-13T16:27:43.587Z,10.91
2022-11-13T16:30:17.419Z,10.71
2022-11-13T16:32:43.849Z,10.97
2022-11-13T16:35:17.795Z,10.89
2022-11-13T16:37:44.250Z,10.80
2022-11-13T16:40:16.774Z,10.75
2022-11-13T16:42:43.247Z,11.00
2022-11-13T16:45:10.830Z,11.54
2022-11-13T16:47:37.283Z,11.50
2022-11-13T16:50:03.873Z,11.33
2022-11-13T16:52:31.869Z,11.33
2022-11-13T16:55:03.690Z,10.82
2022-11-13T16:57:32.958Z,10.78
2022-11-13T16:59:59.516Z,11.35
2022-11-13T17:02:29.098Z,10.95
2022-11-13T17:04:56.295Z,11.14
2022-11-13T17:07:22.847Z,11.52
2022-11-13T17:10:09.973Z,11.79
2022-11-13T17:12:38.794Z,11.91
2022-11-13T17:15:05.994Z,11.61
2022-11-13T17:17:32.422Z,11.91
2022-11-13T17:19:58.898Z,11.77
2022-11-13T17:22:25.458Z,11.43
2022-11-13T17:24:51.942Z,11.51
2022-11-13T17:27:19.469Z,11.46
2022-11-13T17:29:47.028Z,11.95
2022-11-13T17:32:14.616Z,11.31
2022-11-13T17:34:43.460Z,11.37
2022-11-13T17:37:10.066Z,11.94
2022-11-13T17:39:37.589Z,12.09
2022-11-13T17:42:04.236Z,11.92
2022-11-13T17:44:34.899Z,11.89
2022-11-13T17:47:01.315Z,11.97
2022-11-13T17:49:29.864Z,11.99
2022-11-13T17:51:56.888Z,12.04
2022-11-13T17:54:25.271Z,11.83
2022-11-13T17:56:51.709Z,11.98
2022-11-13T17:59:18.174Z,12.07
2022-11-13T18:01:44.704Z,11.62
2022-11-13T18:04:12.325Z,12.12
2022-11-13T18:06:38.880Z,12.21
2022-11-13T18:09:06.354Z,12.08
2022-11-13T18:11:32.985Z,12.14
2022-11-13T18:14:01.183Z,11.98
2022-11-13T18:16:31.447Z,11.77
2022-11-13T18:19:00.011Z,11.97
2022-11-13T18:21:32.414Z,12.20
2022-11-13T18:24:05.967Z,12.33
2022-11-13T18:26:33.606Z,12.45
2022-11-13T18:29:00.894Z,12.32
2022-11-13T18:31:28.027Z,12.16
2022-11-13T18:33:54.883Z,11.95
2022-11-13T18:36:21.401Z,12.29
2022-11-13T18:38:47.903Z,11.97
2022-11-13T18:41:18.817Z,12.19
2022-11-13T18:43:46.558Z,12.09
2022-11-13T18:46:14.602Z,11.90
2022-11-13T18:48:42.660Z,11.75
2022-11-13T18:51:14.954Z,12.13
2022-11-13T18:53:43.633Z,11.84
2022-11-13T18:56:15.043Z,12.37
2022-11-13T18:58:43.226Z,12.13
2022-11-13T19:01:22.197Z,11.99
2022-11-13T19:04:16.150Z,12.13
2022-11-13T19:06:38.450Z,11.81
2022-11-13T19:09:07.449Z,11.94
2022-11-13T19:11:34.367Z,12.03
2022-11-13T19:14:00.866Z,11.87
2022-11-13T19:16:36.723Z,12.08
2022-11-13T19:19:17.900Z,12.04
2022-11-13T19:21:45.217Z,11.89
2022-11-13T19:24:13.189Z,12.12
2022-11-13T19:26:40.654Z,12.12
2022-11-13T19:29:07.231Z,12.27
2022-11-13T19:31:34.544Z,12.45
2022-11-13T19:34:03.852Z,12.52
2022-11-13T19:36:31.763Z,12.59
2022-11-13T19:38:59.094Z,12.68
2022-11-13T19:41:27.536Z,12.47
2022-11-13T19:43:54.396Z,12.57
2022-11-13T19:46:21.375Z,12.85
2022-11-13T19:48:48.766Z,12.36
2022-11-13T19:51:23.955Z,12.35
2022-11-13T19:53:55.077Z,12.58
2022-11-13T19:56:22.193Z,12.49
2022-11-13T19:58:50.276Z,11.85
2022-11-13T20:01:19.760Z,11.76
2022-11-13T20:03:46.684Z,11.78
2022-11-13T20:06:17.226Z,12.23
2022-11-13T20:08:44.028Z,12.02
2022-11-13T20:11:12.076Z,12.20
2022-11-13T20:13:39.364Z,12.30
2022-11-13T20:16:06.834Z,12.11
2022-11-13T20:18:33.323Z,12.35
2022-11-13T20:21:00.298Z,12.40
2022-11-13T20:23:27.084Z,12.74
2022-11-13T20:25:55.917Z,12.37
2022-11-13T20:28:23.091Z,12.55
2022-11-13T20:30:49.745Z,12.34
2022-11-13T20:33:22.195Z,12.52
2022-11-13T20:35:55.323Z,12.31
2022-11-13T20:38:21.853Z,12.46
2022-11-13T20:40:48.493Z,12.28
2022-11-13T20:43:14.970Z,11.75
2022-11-13T20:45:41.452Z,11.47
2022-11-13T20:48:07.908Z,11.77
2022-11-13T20:50:37.981Z,11.64
2022-11-13T20:53:05.307Z,11.71
2022-11-13T20:55:32.023Z,12.10
2022-11-13T20:57:58.549Z,12.09
2022-11-13T21:00:25.021Z,11.83
2022-11-13T21:02:51.910Z,12.19
2022-11-13T21:05:18.559Z,11.83
2022-11-13T21:07:45.020Z,12.13
2022-11-13T21:10:11.480Z,12.00
2022-11-13T21:12:37.929Z,11.81
2022-11-13T21:15:04.937Z,11.85
2022-11-13T21:17:31.392Z,12.00
2022-11-13T21:19:58.014Z,12.37
2022-11-13T21:22:24.557Z,12.08
2022-11-13T21:24:51.009Z,12.08
2022-11-13T21:27:17.536Z,12.38
2022-11-13T21:29:44.021Z,12.56
2022-11-13T21:32:10.531Z,12.43
2022-11-13T21:34:36.968Z,12.36
2022-11-13T21:37:03.521Z,12.11
2022-11-13T21:39:31.012Z,11.78
2022-11-13T21:41:57.464Z,11.65
2022-11-13T21:44:24.045Z,11.67
2022-11-13T21:46:50.508Z,11.77
2022-11-13T21:49:17.052Z,12.28
2022-11-13T21:51:43.803Z,11.66
2022-11-13T21:54:10.399Z,11.56
2022-11-13T21:56:37.971Z,11.76
2022-11-13T21:59:05.473Z,11.85
2022-11-13T22:01:37.861Z,11.83
2022-11-13T22:04:04.975Z,12.12
2022-11-13T22:06:33.222Z,12.21
2022-11-13T22:09:01.230Z,12.00
2022-11-13T22:11:30.990Z,11.62
2022-11-13T22:13:58.020Z,12.13
2022-11-13T22:16:26.091Z,12.01
2022-11-13T22:18:57.120Z,12.11
2022-11-13T22:21:24.589Z,12.06
2022-11-13T22:23:51.278Z,12.22
2022-11-13T22:26:18.571Z,11.73
2022-11-13T22:28:46.224Z,12.32
2022-11-13T22:31:29.675Z,12.51
2022-11-13T22:33:56.651Z,12.50
2022-11-13T22:36:25.601Z,12.40
2022-11-13T22:38:52.588Z,12.57
2022-11-13T22:41:23.517Z,12.12
2022-11-13T22:43:56.599Z,11.78
2022-11-13T22:46:25.324Z,11.65
2022-11-13T22:48:53.169Z,11.74
2022-11-13T22:51:23.017Z,11.62
2022-11-13T22:53:54.644Z,11.49
2022-11-13T22:56:22.675Z,11.23
2022-11-13T22:58:50.363Z,11.55
2022-11-13T23:01:22.032Z,11.39
2022-11-13T23:03:49.538Z,11.38
2022-11-13T23:06:18.336Z,11.03
2022-11-13T23:08:44.804Z,11.07
2022-11-13T23:11:13.468Z,11.29
2022-11-13T23:13:41.723Z,11.54
2022-11-13T23:16:08.679Z,11.41
2022-11-13T23:18:35.381Z,11.64
2022-11-13T23:21:01.862Z,11.61
2022-11-13T23:23:28.455Z,12.00
2022-11-13T23:25:54.919Z,11.55
2022-11-13T23:28:21.410Z,11.53
2022-11-13T23:30:47.964Z,11.76
2022-11-13T23:33:15.529Z,11.65
2022-11-13T23:35:42.906Z,12.12
2022-11-13T23:38:10.775Z,12.17
2022-11-13T23:40:37.255Z,11.92
2022-11-13T23:43:03.805Z,11.88
2022-11-13T23:45:30.482Z,12.02
2022-11-13T23:47:56.936Z,11.96
2022-11-13T23:50:23.442Z,11.75
2022-11-13T23:52:49.920Z,11.99
2022-11-13T23:55:17.015Z,12.29
2022-11-13T23:57:43.511Z,11.75
